sensor_id;sensor_type;location;lat;lon;timestamp;temperature;humidity
2913;DHT22;1466;48.778;9.166;2024-02-16T00:01:45;13.80;99.80
2913;DHT22;1466;48.778;9.166;2024-02-16T00:04:11;13.80;99.70
2913;DHT22;1466;48.778;9.166;2024-02-16T00:06:36;13.80;99.70
2913;DHT22;1466;48.778;9.166;2024-02-16T00:09:02;13.80;99.60
2913;DHT22;1466;48.778;9.166;2024-02-16T00:11:27;13.80;99.60
2913;DHT22;1466;48.778;9.166;2024-02-16T00:13:54;13.80;99.50
2913;DHT22;1466;48.778;9.166;2024-02-16T00:16:19;13.80;99.30
2913;DHT22;1466;48.778;9.166;2024-02-16T00:18:46;13.80;99.10
2913;DHT22;1466;48.778;9.166;2024-02-16T00:21:12;13.80;99.00
2913;DHT22;1466;48.778;9.166;2024-02-16T00:23:37;13.80;99.20
2913;DHT22;1466;48.778;9.166;2024-02-16T00:26:03;13.70;99.40
2913;DHT22;1466;48.778;9.166;2024-02-16T00:28:32;13.60;99.70
2913;DHT22;1466;48.778;9.166;2024-02-16T00:30:58;13.50;99.80
2913;DHT22;1466;48.778;9.166;2024-02-16T00:33:23;13.60;99.80
2913;DHT22;1466;48.778;9.166;2024-02-16T00:35:49;13.50;99.80
2913;DHT22;1466;48.778;9.166;2024-02-16T00:38:15;13.50;99.90
2913;DHT22;1466;48.778;9.166;2024-02-16T00:40:40;13.50;99.90
2913;DHT22;1466;48.778;9.166;2024-02-16T00:43:09;13.50;99.90
2913;DHT22;1466;48.778;9.166;2024-02-16T00:45:35;13.50;99.90
2913;DHT22;1466;48.778;9.166;2024-02-16T00:48:00;13.50;99.90
2913;DHT22;1466;48.778;9.166;2024-02-16T00:50:27;13.60;99.90
2913;DHT22;1466;48.778;9.166;2024-02-16T00:52:53;13.60;99.90
2913;DHT22;1466;48.778;9.166;2024-02-16T00:55:18;13.60;99.90
2913;DHT22;1466;48.778;9.166;2024-02-16T00:57:44;13.60;99.90
2913;DHT22;1466;48.778;9.166;2024-02-16T01:00:10;13.60;99.90
2913;DHT22;1466;48.778;9.166;2024-02-16T01:02:36;13.60;99.90
2913;DHT22;1466;48.778;9.166;2024-02-16T01:05:02;13.60;99.90
2913;DHT22;1466;48.778;9.166;2024-02-16T01:07:28;13.60;99.90
2913;DHT22;1466;48.778;9.166;2024-02-16T01:09:54;13.60;99.90
2913;DHT22;1466;48.778;9.166;2024-02-16T01:12:21;13.60;99.90
2913;DHT22;1466;48.778;9.166;2024-02-16T01:14:47;13.60;99.90
2913;DHT22;1466;48.778;9.166;2024-02-16T01:17:12;13.60;99.90
2913;DHT22;1466;48.778;9.166;2024-02-16T01:19:38;13.60;99.90
2913;DHT22;1466;48.778;9.166;2024-02-16T01:22:04;13.60;99.90
2913;DHT22;1466;48.778;9.166;2024-02-16T01:24:29;13.60;99.90
2913;DHT22;1466;48.778;9.166;2024-02-16T01:26:55;13.60;99.90
2913;DHT22;1466;48.778;9.166;2024-02-16T01:29:20;13.60;99.90
2913;DHT22;1466;48.778;9.166;2024-02-16T01:31:46;13.60;99.90
2913;DHT22;1466;48.778;9.166;2024-02-16T01:34:12;13.60;99.90
2913;DHT22;1466;48.778;9.166;2024-02-16T01:36:37;13.60;99.90
2913;DHT22;1466;48.778;9.166;2024-02-16T01:39:03;13.50;99.90
2913;DHT22;1466;48.778;9.166;2024-02-16T01:41:28;13.50;99.90
2913;DHT22;1466;48.778;9.166;2024-02-16T01:43:54;13.50;99.90
2913;DHT22;1466;48.778;9.166;2024-02-16T01:46:22;13.50;99.90
2913;DHT22;1466;48.778;9.166;2024-02-16T01:48:48;13.60;99.90
2913;DHT22;1466;48.778;9.166;2024-02-16T01:51:15;13.60;99.90
2913;DHT22;1466;48.778;9.166;2024-02-16T01:53:41;13.60;99.90
2913;DHT22;1466;48.778;9.166;2024-02-16T01:56:07;13.70;99.90
2913;DHT22;1466;48.778;9.166;2024-02-16T01:58:34;13.60;99.90
2913;DHT22;1466;48.778;9.166;2024-02-16T02:00:59;13.70;99.90
2913;DHT22;1466;48.778;9.166;2024-02-16T02:03:25;13.60;99.90
2913;DHT22;1466;48.778;9.166;2024-02-16T02:05:51;13.60;99.90
2913;DHT22;1466;48.778;9.166;2024-02-16T02:08:19;13.60;99.90
2913;DHT22;1466;48.778;9.166;2024-02-16T02:10:45;13.60;99.90
2913;DHT22;1466;48.778;9.166;2024-02-16T02:13:11;13.50;99.90
2913;DHT22;1466;48.778;9.166;2024-02-16T02:15:36;13.50;99.90
2913;DHT22;1466;48.778;9.166;2024-02-16T02:18:02;13.50;99.90
2913;DHT22;1466;48.778;9.166;2024-02-16T02:20:28;13.40;99.90
2913;DHT22;1466;48.778;9.166;2024-02-16T02:22:53;13.40;99.90
2913;DHT22;1466;48.778;9.166;2024-02-16T02:25:19;13.40;99.90
2913;DHT22;1466;48.778;9.166;2024-02-16T02:27:45;13.40;99.90
2913;DHT22;1466;48.778;9.166;2024-02-16T02:30:11;13.50;99.90
2913;DHT22;1466;48.778;9.166;2024-02-16T02:32:36;13.50;99.90
2913;DHT22;1466;48.778;9.166;2024-02-16T02:35:02;13.40;99.90
2913;DHT22;1466;48.778;9.166;2024-02-16T02:37:29;13.40;99.90
2913;DHT22;1466;48.778;9.166;2024-02-16T02:39:55;13.40;99.90
2913;DHT22;1466;48.778;9.166;2024-02-16T02:42:21;13.30;99.90
2913;DHT22;1466;48.778;9.166;2024-02-16T02:44:46;13.30;99.90
2913;DHT22;1466;48.778;9.166;2024-02-16T02:47:16;13.30;99.90
2913;DHT22;1466;48.778;9.166;2024-02-16T02:49:42;13.40;99.90
2913;DHT22;1466;48.778;9.166;2024-02-16T02:52:08;13.40;99.90
2913;DHT22;1466;48.778;9.166;2024-02-16T02:54:34;13.40;99.90
2913;DHT22;1466;48.778;9.166;2024-02-16T02:57:01;13.40;99.90
2913;DHT22;1466;48.778;9.166;2024-02-16T02:59:27;13.40;99.90
2913;DHT22;1466;48.778;9.166;2024-02-16T03:01:52;13.50;99.90
2913;DHT22;1466;48.778;9.166;2024-02-16T03:04:18;13.50;99.90
2913;DHT22;1466;48.778;9.166;2024-02-16T03:06:44;13.40;99.90
2913;DHT22;1466;48.778;9.166;2024-02-16T03:09:11;13.40;99.90
2913;DHT22;1466;48.778;9.166;2024-02-16T03:11:38;13.30;99.90
2913;DHT22;1466;48.778;9.166;2024-02-16T03:14:03;13.30;99.90
2913;DHT22;1466;48.778;9.166;2024-02-16T03:16:30;13.30;99.90
2913;DHT22;1466;48.778;9.166;2024-02-16T03:18:57;13.30;99.90
2913;DHT22;1466;48.778;9.166;2024-02-16T03:21:22;13.30;99.90
2913;DHT22;1466;48.778;9.166;2024-02-16T03:23:48;13.30;99.90
2913;DHT22;1466;48.778;9.166;2024-02-16T03:26:15;13.30;99.90
2913;DHT22;1466;48.778;9.166;2024-02-16T03:28:44;13.30;99.90
2913;DHT22;1466;48.778;9.166;2024-02-16T03:31:22;13.30;99.90
2913;DHT22;1466;48.778;9.166;2024-02-16T03:33:48;13.30;99.90
2913;DHT22;1466;48.778;9.166;2024-02-16T03:36:15;13.40;99.90
2913;DHT22;1466;48.778;9.166;2024-02-16T03:38:41;13.40;99.90
2913;DHT22;1466;48.778;9.166;2024-02-16T03:41:10;13.30;99.90
2913;DHT22;1466;48.778;9.166;2024-02-16T03:43:35;13.30;99.90
2913;DHT22;1466;48.778;9.166;2024-02-16T03:46:01;13.30;99.90
2913;DHT22;1466;48.778;9.166;2024-02-16T03:48:27;13.20;99.90
2913;DHT22;1466;48.778;9.166;2024-02-16T03:50:52;13.20;99.90
2913;DHT22;1466;48.778;9.166;2024-02-16T03:53:18;13.20;99.90
2913;DHT22;1466;48.778;9.166;2024-02-16T03:55:43;13.20;99.90
2913;DHT22;1466;48.778;9.166;2024-02-16T03:58:09;13.30;99.90
2913;DHT22;1466;48.778;9.166;2024-02-16T04:00:35;13.20;99.90
2913;DHT22;1466;48.778;9.166;2024-02-16T04:03:00;13.30;99.90
2913;DHT22;1466;48.778;9.166;2024-02-16T04:05:26;13.30;99.90
2913;DHT22;1466;48.778;9.166;2024-02-16T04:07:56;13.30;99.90
2913;DHT22;1466;48.778;9.166;2024-02-16T04:10:21;13.30;99.90
2913;DHT22;1466;48.778;9.166;2024-02-16T04:12:47;13.30;99.90
2913;DHT22;1466;48.778;9.166;2024-02-16T04:15:13;13.20;99.90
2913;DHT22;1466;48.778;9.166;2024-02-16T04:17:38;13.20;99.90
2913;DHT22;1466;48.778;9.166;2024-02-16T04:20:04;13.20;99.90
2913;DHT22;1466;48.778;9.166;2024-02-16T04:22:30;13.10;99.90
2913;DHT22;1466;48.778;9.166;2024-02-16T04:24:55;13.10;99.90
2913;DHT22;1466;48.778;9.166;2024-02-16T04:27:21;13.00;99.90
2913;DHT22;1466;48.778;9.166;2024-02-16T04:29:47;12.90;99.90
2913;DHT22;1466;48.778;9.166;2024-02-16T04:32:12;13.00;99.90
2913;DHT22;1466;48.778;9.166;2024-02-16T04:34:38;13.00;99.90
2913;DHT22;1466;48.778;9.166;2024-02-16T04:37:03;13.10;99.90
2913;DHT22;1466;48.778;9.166;2024-02-16T04:39:29;13.10;99.90
2913;DHT22;1466;48.778;9.166;2024-02-16T04:41:55;13.10;99.90
2913;DHT22;1466;48.778;9.166;2024-02-16T04:44:20;13.10;99.90
2913;DHT22;1466;48.778;9.166;2024-02-16T04:46:46;13.20;99.90
2913;DHT22;1466;48.778;9.166;2024-02-16T04:49:11;13.20;99.90
2913;DHT22;1466;48.778;9.166;2024-02-16T04:51:37;13.20;99.90
2913;DHT22;1466;48.778;9.166;2024-02-16T04:54:04;13.20;99.90
2913;DHT22;1466;48.778;9.166;2024-02-16T04:56:30;13.20;99.90
2913;DHT22;1466;48.778;9.166;2024-02-16T04:58:55;13.30;99.90
2913;DHT22;1466;48.778;9.166;2024-02-16T05:01:21;13.30;99.90
2913;DHT22;1466;48.778;9.166;2024-02-16T05:03:47;13.30;99.90
2913;DHT22;1466;48.778;9.166;2024-02-16T05:06:12;13.20;99.90
2913;DHT22;1466;48.778;9.166;2024-02-16T05:08:38;13.20;99.90
2913;DHT22;1466;48.778;9.166;2024-02-16T05:11:04;13.20;99.90
2913;DHT22;1466;48.778;9.166;2024-02-16T05:13:29;13.20;99.90
2913;DHT22;1466;48.778;9.166;2024-02-16T05:15:55;13.20;99.90
2913;DHT22;1466;48.778;9.166;2024-02-16T05:18:23;13.20;99.90
2913;DHT22;1466;48.778;9.166;2024-02-16T05:20:50;13.20;99.90
2913;DHT22;1466;48.778;9.166;2024-02-16T05:23:15;13.10;99.90
2913;DHT22;1466;48.778;9.166;2024-02-16T05:25:41;13.10;99.90
2913;DHT22;1466;48.778;9.166;2024-02-16T05:28:07;13.10;99.90
2913;DHT22;1466;48.778;9.166;2024-02-16T05:30:32;13.10;99.90
2913;DHT22;1466;48.778;9.166;2024-02-16T05:32:58;13.10;99.90
2913;DHT22;1466;48.778;9.166;2024-02-16T05:35:24;13.20;99.90
2913;DHT22;1466;48.778;9.166;2024-02-16T05:37:54;13.20;99.90
2913;DHT22;1466;48.778;9.166;2024-02-16T05:40:20;13.20;99.90
2913;DHT22;1466;48.778;9.166;2024-02-16T05:42:57;13.10;99.90
2913;DHT22;1466;48.778;9.166;2024-02-16T05:45:23;13.20;99.90
2913;DHT22;1466;48.778;9.166;2024-02-16T05:47:50;13.20;99.90
2913;DHT22;1466;48.778;9.166;2024-02-16T05:50:16;13.20;99.90
2913;DHT22;1466;48.778;9.166;2024-02-16T05:52:43;13.20;99.90
2913;DHT22;1466;48.778;9.166;2024-02-16T05:55:10;13.20;99.90
2913;DHT22;1466;48.778;9.166;2024-02-16T05:57:36;13.30;99.90
2913;DHT22;1466;48.778;9.166;2024-02-16T06:00:07;13.30;99.90
2913;DHT22;1466;48.778;9.166;2024-02-16T06:02:34;13.30;99.90
2913;DHT22;1466;48.778;9.166;2024-02-16T06:05:00;13.30;99.90
2913;DHT22;1466;48.778;9.166;2024-02-16T06:07:26;13.20;99.90
2913;DHT22;1466;48.778;9.166;2024-02-16T06:09:52;13.20;99.90
2913;DHT22;1466;48.778;9.166;2024-02-16T06:12:19;13.20;99.90
2913;DHT22;1466;48.778;9.166;2024-02-16T06:14:45;13.30;99.90
2913;DHT22;1466;48.778;9.166;2024-02-16T06:17:11;13.20;99.90
2913;DHT22;1466;48.778;9.166;2024-02-16T06:19:43;13.20;99.90
2913;DHT22;1466;48.778;9.166;2024-02-16T06:22:09;13.20;99.90
2913;DHT22;1466;48.778;9.166;2024-02-16T06:24:35;13.20;99.90
2913;DHT22;1466;48.778;9.166;2024-02-16T06:27:01;13.20;99.90
2913;DHT22;1466;48.778;9.166;2024-02-16T06:29:27;13.20;99.90
2913;DHT22;1466;48.778;9.166;2024-02-16T06:31:53;13.20;99.90
2913;DHT22;1466;48.778;9.166;2024-02-16T06:34:19;13.20;99.90
2913;DHT22;1466;48.778;9.166;2024-02-16T06:36:45;13.20;99.90
2913;DHT22;1466;48.778;9.166;2024-02-16T06:39:11;13.20;99.90
2913;DHT22;1466;48.778;9.166;2024-02-16T06:41:37;13.30;99.90
2913;DHT22;1466;48.778;9.166;2024-02-16T06:44:04;13.30;99.90
2913;DHT22;1466;48.778;9.166;2024-02-16T06:46:30;13.30;99.90
2913;DHT22;1466;48.778;9.166;2024-02-16T06:48:56;13.30;99.90
2913;DHT22;1466;48.778;9.166;2024-02-16T06:51:25;13.30;99.90
2913;DHT22;1466;48.778;9.166;2024-02-16T06:53:52;13.20;99.90
2913;DHT22;1466;48.778;9.166;2024-02-16T06:56:18;13.10;99.90
2913;DHT22;1466;48.778;9.166;2024-02-16T06:58:46;13.20;99.90
2913;DHT22;1466;48.778;9.166;2024-02-16T07:01:13;13.20;99.90
2913;DHT22;1466;48.778;9.166;2024-02-16T07:03:39;13.20;99.90
2913;DHT22;1466;48.778;9.166;2024-02-16T07:06:05;13.20;99.90
2913;DHT22;1466;48.778;9.166;2024-02-16T07:08:37;13.10;99.90
2913;DHT22;1466;48.778;9.166;2024-02-16T07:11:04;13.20;99.90
2913;DHT22;1466;48.778;9.166;2024-02-16T07:13:31;13.20;99.90
2913;DHT22;1466;48.778;9.166;2024-02-16T07:15:56;13.20;99.90
2913;DHT22;1466;48.778;9.166;2024-02-16T07:18:22;13.20;99.90
2913;DHT22;1466;48.778;9.166;2024-02-16T07:20:48;13.20;99.90
2913;DHT22;1466;48.778;9.166;2024-02-16T07:23:14;13.20;99.90
2913;DHT22;1466;48.778;9.166;2024-02-16T07:25:41;13.20;99.90
2913;DHT22;1466;48.778;9.166;2024-02-16T07:28:07;13.30;99.90
2913;DHT22;1466;48.778;9.166;2024-02-16T07:30:36;13.30;99.90
2913;DHT22;1466;48.778;9.166;2024-02-16T07:33:04;13.30;99.90
2913;DHT22;1466;48.778;9.166;2024-02-16T07:35:30;13.40;99.90
2913;DHT22;1466;48.778;9.166;2024-02-16T07:37:58;13.40;99.90
2913;DHT22;1466;48.778;9.166;2024-02-16T07:40:23;13.40;99.90
2913;DHT22;1466;48.778;9.166;2024-02-16T07:42:49;13.30;99.90
2913;DHT22;1466;48.778;9.166;2024-02-16T07:45:14;13.40;99.90
2913;DHT22;1466;48.778;9.166;2024-02-16T07:47:41;13.30;99.90
2913;DHT22;1466;48.778;9.166;2024-02-16T07:50:07;13.30;99.90
2913;DHT22;1466;48.778;9.166;2024-02-16T07:52:33;13.30;99.90
2913;DHT22;1466;48.778;9.166;2024-02-16T07:54:58;13.30;99.90
2913;DHT22;1466;48.778;9.166;2024-02-16T07:57:24;13.40;99.90
2913;DHT22;1466;48.778;9.166;2024-02-16T07:59:50;13.40;99.90
2913;DHT22;1466;48.778;9.166;2024-02-16T08:02:16;13.40;99.90
2913;DHT22;1466;48.778;9.166;2024-02-16T08:04:46;13.40;99.90
2913;DHT22;1466;48.778;9.166;2024-02-16T08:07:12;13.30;99.90
2913;DHT22;1466;48.778;9.166;2024-02-16T08:09:38;13.40;99.90
2913;DHT22;1466;48.778;9.166;2024-02-16T08:12:05;13.40;99.90
2913;DHT22;1466;48.778;9.166;2024-02-16T08:14:32;13.40;99.90
2913;DHT22;1466;48.778;9.166;2024-02-16T08:16:58;13.50;99.90
2913;DHT22;1466;48.778;9.166;2024-02-16T08:19:32;13.50;99.90
2913;DHT22;1466;48.778;9.166;2024-02-16T08:21:59;13.60;99.90
2913;DHT22;1466;48.778;9.166;2024-02-16T08:24:25;13.70;99.90
2913;DHT22;1466;48.778;9.166;2024-02-16T08:26:51;13.80;99.90
2913;DHT22;1466;48.778;9.166;2024-02-16T08:29:16;13.90;99.90
2913;DHT22;1466;48.778;9.166;2024-02-16T08:31:42;14.00;99.90
2913;DHT22;1466;48.778;9.166;2024-02-16T08:34:11;14.10;99.90
2913;DHT22;1466;48.778;9.166;2024-02-16T08:36:37;14.10;99.90
2913;DHT22;1466;48.778;9.166;2024-02-16T08:39:05;14.30;99.80
2913;DHT22;1466;48.778;9.166;2024-02-16T08:41:31;14.40;99.60
2913;DHT22;1466;48.778;9.166;2024-02-16T08:43:57;14.40;99.40
2913;DHT22;1466;48.778;9.166;2024-02-16T08:46:23;14.50;99.30
2913;DHT22;1466;48.778;9.166;2024-02-16T08:48:48;14.50;99.30
2913;DHT22;1466;48.778;9.166;2024-02-16T08:51:14;14.60;98.90
2913;DHT22;1466;48.778;9.166;2024-02-16T08:53:40;14.80;98.70
2913;DHT22;1466;48.778;9.166;2024-02-16T08:56:09;15.10;98.50
2913;DHT22;1466;48.778;9.166;2024-02-16T08:58:37;15.40;98.10
2913;DHT22;1466;48.778;9.166;2024-02-16T09:01:02;15.90;97.60
2913;DHT22;1466;48.778;9.166;2024-02-16T09:03:28;16.20;97.00
2913;DHT22;1466;48.778;9.166;2024-02-16T09:05:53;16.50;96.50
2913;DHT22;1466;48.778;9.166;2024-02-16T09:08:19;16.80;96.10
2913;DHT22;1466;48.778;9.166;2024-02-16T09:10:45;17.00;95.50
2913;DHT22;1466;48.778;9.166;2024-02-16T09:13:10;17.20;95.10
2913;DHT22;1466;48.778;9.166;2024-02-16T09:15:36;17.30;94.70
2913;DHT22;1466;48.778;9.166;2024-02-16T09:18:02;17.50;94.40
2913;DHT22;1466;48.778;9.166;2024-02-16T09:20:28;17.60;94.30
2913;DHT22;1466;48.778;9.166;2024-02-16T09:22:54;17.70;93.80
2913;DHT22;1466;48.778;9.166;2024-02-16T09:25:19;17.80;93.60
2913;DHT22;1466;48.778;9.166;2024-02-16T09:27:46;17.70;93.40
2913;DHT22;1466;48.778;9.166;2024-02-16T09:30:12;17.40;93.30
2913;DHT22;1466;48.778;9.166;2024-02-16T09:32:41;17.20;93.50
2913;DHT22;1466;48.778;9.166;2024-02-16T09:35:08;17.10;93.70
2913;DHT22;1466;48.778;9.166;2024-02-16T09:37:35;17.00;93.90
2913;DHT22;1466;48.778;9.166;2024-02-16T09:40:01;16.90;94.00
2913;DHT22;1466;48.778;9.166;2024-02-16T09:42:29;16.90;94.00
2913;DHT22;1466;48.778;9.166;2024-02-16T09:44:55;16.90;94.00
2913;DHT22;1466;48.778;9.166;2024-02-16T09:47:22;17.00;94.20
2913;DHT22;1466;48.778;9.166;2024-02-16T09:49:49;17.10;94.10
2913;DHT22;1466;48.778;9.166;2024-02-16T09:52:14;17.30;94.00
2913;DHT22;1466;48.778;9.166;2024-02-16T09:54:40;17.40;93.80
2913;DHT22;1466;48.778;9.166;2024-02-16T09:57:06;17.50;93.60
2913;DHT22;1466;48.778;9.166;2024-02-16T09:59:31;17.50;93.40
2913;DHT22;1466;48.778;9.166;2024-02-16T10:02:04;17.50;93.30
2913;DHT22;1466;48.778;9.166;2024-02-16T10:04:32;17.50;93.60
2913;DHT22;1466;48.778;9.166;2024-02-16T10:06:58;17.50;93.20
2913;DHT22;1466;48.778;9.166;2024-02-16T10:09:29;17.50;93.10
2913;DHT22;1466;48.778;9.166;2024-02-16T10:11:55;17.50;93.00
2913;DHT22;1466;48.778;9.166;2024-02-16T10:14:20;17.50;93.00
2913;DHT22;1466;48.778;9.166;2024-02-16T10:16:59;17.40;92.90
2913;DHT22;1466;48.778;9.166;2024-02-16T10:19:25;17.40;92.90
2913;DHT22;1466;48.778;9.166;2024-02-16T10:21:50;17.30;93.00
2913;DHT22;1466;48.778;9.166;2024-02-16T10:24:21;17.30;93.10
2913;DHT22;1466;48.778;9.166;2024-02-16T10:26:47;17.40;93.30
2913;DHT22;1466;48.778;9.166;2024-02-16T10:29:18;17.30;93.20
2913;DHT22;1466;48.778;9.166;2024-02-16T10:31:47;17.30;93.20
2913;DHT22;1466;48.778;9.166;2024-02-16T10:34:13;17.40;93.30
2913;DHT22;1466;48.778;9.166;2024-02-16T10:36:39;17.40;93.30
2913;DHT22;1466;48.778;9.166;2024-02-16T10:39:06;17.40;93.30
2913;DHT22;1466;48.778;9.166;2024-02-16T10:41:40;17.40;93.20
2913;DHT22;1466;48.778;9.166;2024-02-16T10:44:06;17.50;93.30
2913;DHT22;1466;48.778;9.166;2024-02-16T10:46:36;17.50;93.20
2913;DHT22;1466;48.778;9.166;2024-02-16T10:49:03;17.70;93.20
2913;DHT22;1466;48.778;9.166;2024-02-16T10:51:47;17.70;93.30
2913;DHT22;1466;48.778;9.166;2024-02-16T10:54:17;17.70;92.90
2913;DHT22;1466;48.778;9.166;2024-02-16T10:56:43;17.80;92.90
2913;DHT22;1466;48.778;9.166;2024-02-16T10:59:09;17.90;92.90
2913;DHT22;1466;48.778;9.166;2024-02-16T11:01:40;18.00;92.70
2913;DHT22;1466;48.778;9.166;2024-02-16T11:04:08;18.10;92.50
2913;DHT22;1466;48.778;9.166;2024-02-16T11:06:54;18.20;92.50
2913;DHT22;1466;48.778;9.166;2024-02-16T11:09:34;18.30;92.30
2913;DHT22;1466;48.778;9.166;2024-02-16T11:12:02;18.40;92.20
2913;DHT22;1466;48.778;9.166;2024-02-16T11:14:38;18.50;92.30
2913;DHT22;1466;48.778;9.166;2024-02-16T11:17:20;18.50;92.10
2913;DHT22;1466;48.778;9.166;2024-02-16T11:19:47;18.60;91.90
2913;DHT22;1466;48.778;9.166;2024-02-16T11:22:16;18.60;91.60
2913;DHT22;1466;48.778;9.166;2024-02-16T11:24:44;18.60;91.30
2913;DHT22;1466;48.778;9.166;2024-02-16T11:27:11;18.50;91.30
2913;DHT22;1466;48.778;9.166;2024-02-16T11:29:37;18.50;91.20
2913;DHT22;1466;48.778;9.166;2024-02-16T11:32:07;18.40;91.30
2913;DHT22;1466;48.778;9.166;2024-02-16T11:34:34;18.30;91.40
2913;DHT22;1466;48.778;9.166;2024-02-16T11:37:00;18.30;91.40
2913;DHT22;1466;48.778;9.166;2024-02-16T11:39:27;18.30;91.50
2913;DHT22;1466;48.778;9.166;2024-02-16T11:42:02;18.30;91.50
2913;DHT22;1466;48.778;9.166;2024-02-16T11:44:29;18.30;91.30
2913;DHT22;1466;48.778;9.166;2024-02-16T11:46:55;18.30;91.30
2913;DHT22;1466;48.778;9.166;2024-02-16T11:49:21;18.50;91.20
2913;DHT22;1466;48.778;9.166;2024-02-16T11:51:47;18.60;90.90
2913;DHT22;1466;48.778;9.166;2024-02-16T11:54:13;18.70;90.70
2913;DHT22;1466;48.778;9.166;2024-02-16T11:56:47;18.70;90.50
2913;DHT22;1466;48.778;9.166;2024-02-16T11:59:17;18.90;90.60
2913;DHT22;1466;48.778;9.166;2024-02-16T12:01:54;19.00;90.50
2913;DHT22;1466;48.778;9.166;2024-02-16T12:04:27;19.10;90.50
2913;DHT22;1466;48.778;9.166;2024-02-16T12:09:21;19.00;90.80
2913;DHT22;1466;48.778;9.166;2024-02-16T12:11:52;19.00;90.80
2913;DHT22;1466;48.778;9.166;2024-02-16T12:14:19;19.10;90.70
2913;DHT22;1466;48.778;9.166;2024-02-16T12:16:48;19.10;90.70
2913;DHT22;1466;48.778;9.166;2024-02-16T12:19:18;19.10;90.80
2913;DHT22;1466;48.778;9.166;2024-02-16T12:21:51;19.10;90.90
2913;DHT22;1466;48.778;9.166;2024-02-16T12:24:18;19.20;90.80
2913;DHT22;1466;48.778;9.166;2024-02-16T12:26:43;19.30;90.70
2913;DHT22;1466;48.778;9.166;2024-02-16T12:29:09;19.30;90.80
2913;DHT22;1466;48.778;9.166;2024-02-16T12:31:41;19.30;90.80
2913;DHT22;1466;48.778;9.166;2024-02-16T12:34:07;19.30;90.80
2913;DHT22;1466;48.778;9.166;2024-02-16T12:36:36;19.30;90.80
2913;DHT22;1466;48.778;9.166;2024-02-16T12:39:04;19.40;90.90
2913;DHT22;1466;48.778;9.166;2024-02-16T12:41:33;19.30;90.80
2913;DHT22;1466;48.778;9.166;2024-02-16T12:43:59;19.30;90.90
2913;DHT22;1466;48.778;9.166;2024-02-16T12:46:25;19.20;90.90
2913;DHT22;1466;48.778;9.166;2024-02-16T12:48:51;19.30;90.90
2913;DHT22;1466;48.778;9.166;2024-02-16T12:51:18;19.30;90.70
2913;DHT22;1466;48.778;9.166;2024-02-16T12:53:43;19.20;90.80
2913;DHT22;1466;48.778;9.166;2024-02-16T12:56:11;19.20;90.90
2913;DHT22;1466;48.778;9.166;2024-02-16T12:58:37;19.20;91.00
2913;DHT22;1466;48.778;9.166;2024-02-16T13:01:03;19.20;91.00
2913;DHT22;1466;48.778;9.166;2024-02-16T13:03:33;19.30;90.90
2913;DHT22;1466;48.778;9.166;2024-02-16T13:05:59;19.30;90.70
2913;DHT22;1466;48.778;9.166;2024-02-16T13:08:24;19.20;90.30
2913;DHT22;1466;48.778;9.166;2024-02-16T13:10:50;19.10;90.20
2913;DHT22;1466;48.778;9.166;2024-02-16T13:13:15;19.10;90.40
2913;DHT22;1466;48.778;9.166;2024-02-16T13:15:41;18.90;90.90
2913;DHT22;1466;48.778;9.166;2024-02-16T13:18:07;19.00;90.80
2913;DHT22;1466;48.778;9.166;2024-02-16T13:20:32;19.00;91.00
2913;DHT22;1466;48.778;9.166;2024-02-16T13:23:00;19.00;91.20
2913;DHT22;1466;48.778;9.166;2024-02-16T13:25:26;18.90;91.20
2913;DHT22;1466;48.778;9.166;2024-02-16T13:27:52;19.00;91.30
2913;DHT22;1466;48.778;9.166;2024-02-16T13:30:17;19.00;91.30
2913;DHT22;1466;48.778;9.166;2024-02-16T13:32:43;19.00;91.40
2913;DHT22;1466;48.778;9.166;2024-02-16T13:35:09;18.90;91.40
2913;DHT22;1466;48.778;9.166;2024-02-16T13:37:35;18.90;91.50
2913;DHT22;1466;48.778;9.166;2024-02-16T13:40:02;18.90;91.60
2913;DHT22;1466;48.778;9.166;2024-02-16T13:42:32;18.90;91.70
2913;DHT22;1466;48.778;9.166;2024-02-16T13:44:58;18.80;91.90
2913;DHT22;1466;48.778;9.166;2024-02-16T13:47:23;18.80;92.10
2913;DHT22;1466;48.778;9.166;2024-02-16T13:49:50;18.80;92.10
2913;DHT22;1466;48.778;9.166;2024-02-16T13:52:17;18.80;92.20
2913;DHT22;1466;48.778;9.166;2024-02-16T13:54:43;18.80;92.40
2913;DHT22;1466;48.778;9.166;2024-02-16T13:57:09;18.70;92.60
2913;DHT22;1466;48.778;9.166;2024-02-16T13:59:34;18.70;92.80
2913;DHT22;1466;48.778;9.166;2024-02-16T14:02:01;18.70;92.90
2913;DHT22;1466;48.778;9.166;2024-02-16T14:04:27;18.70;93.00
2913;DHT22;1466;48.778;9.166;2024-02-16T14:06:53;18.60;93.10
2913;DHT22;1466;48.778;9.166;2024-02-16T14:09:19;18.60;93.20
2913;DHT22;1466;48.778;9.166;2024-02-16T14:11:48;18.60;93.30
2913;DHT22;1466;48.778;9.166;2024-02-16T14:14:13;18.60;93.40
2913;DHT22;1466;48.778;9.166;2024-02-16T14:16:39;18.50;93.40
2913;DHT22;1466;48.778;9.166;2024-02-16T14:19:05;18.50;93.50
2913;DHT22;1466;48.778;9.166;2024-02-16T14:21:31;18.60;93.60
2913;DHT22;1466;48.778;9.166;2024-02-16T14:23:58;18.60;93.80
2913;DHT22;1466;48.778;9.166;2024-02-16T14:26:24;18.60;93.50
2913;DHT22;1466;48.778;9.166;2024-02-16T14:28:53;18.60;93.50
2913;DHT22;1466;48.778;9.166;2024-02-16T14:31:20;18.60;93.50
2913;DHT22;1466;48.778;9.166;2024-02-16T14:33:48;18.60;93.60
2913;DHT22;1466;48.778;9.166;2024-02-16T14:36:13;18.60;93.70
2913;DHT22;1466;48.778;9.166;2024-02-16T14:38:39;18.70;93.70
2913;DHT22;1466;48.778;9.166;2024-02-16T14:41:04;18.60;93.80
2913;DHT22;1466;48.778;9.166;2024-02-16T14:43:34;18.60;93.90
2913;DHT22;1466;48.778;9.166;2024-02-16T14:46:00;18.60;93.90
2913;DHT22;1466;48.778;9.166;2024-02-16T14:48:26;18.60;93.90
2913;DHT22;1466;48.778;9.166;2024-02-16T14:50:52;18.60;93.90
2913;DHT22;1466;48.778;9.166;2024-02-16T14:53:22;18.60;93.90
2913;DHT22;1466;48.778;9.166;2024-02-16T14:55:48;18.60;94.00
2913;DHT22;1466;48.778;9.166;2024-02-16T14:58:18;18.50;94.00
2913;DHT22;1466;48.778;9.166;2024-02-16T15:00:45;18.50;94.20
2913;DHT22;1466;48.778;9.166;2024-02-16T15:03:10;18.40;94.40
2913;DHT22;1466;48.778;9.166;2024-02-16T15:05:36;18.30;94.70
2913;DHT22;1466;48.778;9.166;2024-02-16T15:08:02;18.20;94.80
2913;DHT22;1466;48.778;9.166;2024-02-16T15:10:28;18.20;95.00
2913;DHT22;1466;48.778;9.166;2024-02-16T15:12:54;18.10;95.10
2913;DHT22;1466;48.778;9.166;2024-02-16T15:15:19;18.20;95.50
2913;DHT22;1466;48.778;9.166;2024-02-16T15:17:45;18.30;95.20
2913;DHT22;1466;48.778;9.166;2024-02-16T15:20:11;18.30;95.10
2913;DHT22;1466;48.778;9.166;2024-02-16T15:22:36;18.40;95.20
2913;DHT22;1466;48.778;9.166;2024-02-16T15:25:03;18.50;95.00
2913;DHT22;1466;48.778;9.166;2024-02-16T15:27:28;18.50;95.10
2913;DHT22;1466;48.778;9.166;2024-02-16T15:29:54;18.50;95.10
2913;DHT22;1466;48.778;9.166;2024-02-16T15:32:20;18.50;95.10
2913;DHT22;1466;48.778;9.166;2024-02-16T15:34:46;18.30;95.30
2913;DHT22;1466;48.778;9.166;2024-02-16T15:37:14;18.20;95.50
2913;DHT22;1466;48.778;9.166;2024-02-16T15:39:40;18.30;95.60
2913;DHT22;1466;48.778;9.166;2024-02-16T15:42:06;18.20;95.60
2913;DHT22;1466;48.778;9.166;2024-02-16T15:44:37;18.20;95.70
2913;DHT22;1466;48.778;9.166;2024-02-16T15:47:02;18.20;95.80
2913;DHT22;1466;48.778;9.166;2024-02-16T15:49:28;18.20;96.00
2913;DHT22;1466;48.778;9.166;2024-02-16T15:51:54;18.10;96.10
2913;DHT22;1466;48.778;9.166;2024-02-16T15:54:20;18.00;96.30
2913;DHT22;1466;48.778;9.166;2024-02-16T15:56:51;17.90;96.40
2913;DHT22;1466;48.778;9.166;2024-02-16T15:59:18;17.90;96.60
2913;DHT22;1466;48.778;9.166;2024-02-16T16:01:44;17.90;96.50